ADDS METAR Data INFO
IDs: Format: Raw Decoded Include TAF

Data at: 0044 UTC 23 Oct 2017

K4A9 230035Z AUTO 12006KT 10SM SCT036 SCT120 22/16 A3006 RMK AO2
K4A9 230015Z AUTO 00000KT 10SM CLR 22/16 A3006 RMK AO2
K4A9 222355Z AUTO 10007G16KT 10SM CLR 22/16 A3005 RMK AO2
K4A9 222335Z AUTO 11008KT 10SM CLR 22/16 A3006 RMK AO2
K4A9 222315Z AUTO 11009G15KT 10SM CLR 22/16 A3006 RMK AO2
K4A9 222255Z AUTO 12004KT 10SM CLR 22/16 A3007 RMK AO2
K4A9 222235Z AUTO 11004KT 10SM CLR 23/16 A3008 RMK AO2
K4A9 222215Z AUTO 12005KT 10SM CLR 23/16 A3008 RMK AO2
K4A9 222155Z AUTO 10005KT 10SM CLR 23/16 A3008 RMK AO2
K4A9 222135Z AUTO 11004KT 10SM SCT070 23/16 A3008 RMK AO2
K4A9 222115Z AUTO 12004KT 10SM SCT041 SCT070 SCT075 23/16 A3009 RMK AO2
K4A9 222055Z AUTO 13004KT 10SM SCT070 SCT080 23/16 A3010 RMK AO2
K4A9 222035Z AUTO 00000KT 10SM SCT070 23/16 A3011 RMK AO2
K4A9 222015Z AUTO 12006KT 10SM CLR 23/16 A3011 RMK AO2
K4A9 221955Z AUTO 13006KT 10SM SCT070 24/15 A3011 RMK AO2
K4A9 221935Z AUTO 13006KT 090V150 10SM BKN070 23/15 A3012 RMK AO2
K4A9 221915Z AUTO 15007G19KT 120V200 10SM BKN065 24/15 A3013 RMK AO2
K4A9 221855Z AUTO 14007KT 10SM BKN060 24/15 A3013 RMK AO2
K4A9 221835Z AUTO 13006KT 10SM SCT030 SCT040 BKN060 24/15 A3014 RMK AO2
K4A9 221815Z AUTO 12005KT 10SM SCT028 SCT037 BKN055 23/15 A3015 RMK AO2
K4A9 221755Z AUTO 00000KT 10SM SCT028 SCT037 OVC055 23/16 A3016 RMK AO2
K4A9 221735Z AUTO 12007G16KT 10SM SCT028 SCT037 BKN055 22/15 A3017 RMK AO2
K4A9 221715Z AUTO 17006KT 10SM SCT026 BKN034 BKN055 23/15 A3018 RMK AO2
K4A9 221655Z AUTO 17008KT 150V220 10SM BKN029 BKN034 22/15 A3019 RMK AO2
K4A9 221635Z AUTO 17005G15KT 10SM BKN025 BKN035 BKN050 22/15 A3019 RMK AO2
K4A9 221615Z AUTO 13008KT 110V190 10SM SCT025 BKN045 22/15 A3020 RMK AO2
K4A9 221555Z AUTO 13007G15KT 090V160 10SM SCT027 SCT041 SCT050 22/14 A3019 RMK AO2
K4A9 221535Z AUTO 13004KT 10SM SCT041 SCT050 21/15 A3020 RMK AO2
K4A9 221515Z AUTO 11005KT 10SM SCT037 SCT044 SCT060 20/14 A3021 RMK AO2
K4A9 221455Z AUTO 11006KT 10SM SCT039 SCT047 BKN060 19/14 A3021 RMK AO2
K4A9 221435Z AUTO 11005KT 10SM SCT036 SCT043 BKN060 18/13 A3021 RMK AO2
K4A9 221415Z AUTO 11005KT 10SM BKN060 18/13 A3022 RMK AO2
K4A9 221355Z AUTO 12006KT 10SM OVC050 18/13 A3023 RMK AO2
K4A9 221335Z AUTO 12005KT 10SM BKN050 17/13 A3022 RMK AO2
K4A9 221315Z AUTO 00000KT 10SM BKN048 17/13 A3022 RMK AO2
K4A9 221255Z AUTO 11004KT 10SM SCT048 16/12 A3022 RMK AO2
K4A9 221235Z AUTO 15004KT 10SM CLR 16/12 A3023 RMK AO2
K4A9 221215Z AUTO 12004KT 10SM CLR 16/12 A3022 RMK AO2
K4A9 221155Z AUTO 12004KT 10SM CLR 16/12 A3022 RMK AO2
K4A9 221135Z AUTO 12003KT 10SM SCT017 17/12 A3022 RMK AO2
K4A9 221115Z AUTO 00000KT 10SM OVC015 17/12 A3022 RMK AO2
K4A9 221055Z AUTO 00000KT 10SM OVC015 17/12 A3021 RMK AO2
K4A9 221035Z AUTO 14003KT 10SM OVC017 17/12 A3021 RMK AO2
K4A9 221015Z AUTO 14005KT 10SM SCT013 17/11 A3021 RMK AO2
K4A9 220955Z AUTO 13004KT 10SM CLR 17/11 A3021 RMK AO2
K4A9 220935Z AUTO 13004KT 10SM SCT044 17/11 A3020 RMK AO2
K4A9 220915Z AUTO 12004KT 10SM BKN044 17/11 A3020 RMK AO2
K4A9 220855Z AUTO 00000KT 10SM BKN042 17/10 A3020 RMK AO2
K4A9 220835Z AUTO 08003KT 10SM SCT042 17/10 A3020 RMK AO2
K4A9 220815Z AUTO 11004KT 10SM CLR 17/10 A3021 RMK AO2
K4A9 220755Z AUTO 12003KT 10SM SCT049 17/10 A3021 RMK AO2
K4A9 220735Z AUTO 12003KT 10SM BKN049 17/10 A3022 RMK AO2
K4A9 220715Z AUTO 13004KT 10SM SCT049 17/10 A3022 RMK AO2
K4A9 220655Z AUTO 13006KT 10SM SCT049 17/10 A3023 RMK AO2
K4A9 220635Z AUTO 12006KT 10SM SCT049 17/10 A3023 RMK AO2
K4A9 220615Z AUTO 12005KT 10SM CLR 17/10 A3023 RMK AO2
K4A9 220555Z AUTO 00000KT 10SM CLR 16/10 A3023 RMK AO2
K4A9 220535Z AUTO 00000KT 10SM CLR 15/10 A3024 RMK AO2
K4A9 220515Z AUTO 00000KT 10SM CLR 14/11 A3024 RMK AO2
K4A9 220455Z AUTO 00000KT 10SM CLR 16/10 A3025 RMK AO2
K4A9 220435Z AUTO 00000KT 10SM CLR 16/10 A3025 RMK AO2
K4A9 220415Z AUTO 00000KT 10SM SCT044 17/10 A3025 RMK AO2
K4A9 220355Z AUTO 00000KT 10SM SCT044 16/11 A3025 RMK AO2
K4A9 220335Z AUTO 00000KT 10SM CLR 15/11 A3025 RMK AO2
K4A9 220315Z AUTO 00000KT 10SM CLR 16/10 A3026 RMK AO2
K4A9 220255Z AUTO 00000KT 10SM CLR 16/10 A3025 RMK AO2
K4A9 220235Z AUTO 00000KT 10SM CLR 16/10 A3024 RMK AO2
K4A9 220215Z AUTO 00000KT 10SM CLR 15/11 A3024 RMK AO2
K4A9 220155Z AUTO 00000KT 10SM CLR 16/11 A3024 RMK AO2
K4A9 220135Z AUTO 00000KT 10SM CLR 16/11 A3023 RMK AO2
K4A9 220115Z AUTO 00000KT 10SM CLR 17/11 A3023 RMK AO2
K4A9 220055Z AUTO 00000KT 10SM CLR 18/10 A3023 RMK AO2
K4A9 220035Z AUTO 00000KT 10SM CLR 19/10 A3022 RMK AO2
K4A9 220015Z AUTO 00000KT 10SM CLR 20/10 A3022 RMK AO2
K4A9 212355Z AUTO 00000KT 10SM CLR 19/10 A3022 RMK AO2
K4A9 212335Z AUTO 00000KT 10SM CLR 20/09 A3022 RMK AO2
K4A9 212315Z AUTO 09003KT 10SM CLR 20/09 A3022 RMK AO2
K4A9 212255Z AUTO 00000KT 10SM CLR 21/09 A3021 RMK AO2
K4A9 212235Z AUTO 11004KT 10SM CLR 21/09 A3021 RMK AO2
K4A9 212215Z AUTO 09004KT 10SM CLR 22/09 A3021 RMK AO2
K4A9 212155Z AUTO 10004KT 10SM CLR 22/09 A3021 RMK AO2
K4A9 212135Z AUTO 14004KT 10SM CLR 23/09 A3021 RMK AO2
K4A9 212115Z AUTO 12006KT 10SM CLR 23/10 A3021 RMK AO2
K4A9 212055Z AUTO 14005KT 10SM CLR 23/11 A3021 RMK AO2
K4A9 212035Z AUTO 12006KT 10SM CLR 25/11 A3021 RMK AO2
K4A9 212015Z AUTO 14005KT 10SM CLR 23/11 A3021 RMK AO2
K4A9 211955Z AUTO 14005KT 10SM CLR 24/11 A3021 RMK AO2
K4A9 211935Z AUTO 13003KT 10SM CLR 24/11 A3021 RMK AO2
K4A9 211915Z AUTO 16004KT 10SM CLR 24/11 A3021 RMK AO2
K4A9 211855Z AUTO 12004KT 10SM CLR 24/11 A3022 RMK AO2
K4A9 211835Z AUTO 15003KT 10SM CLR 23/11 A3022 RMK AO2
K4A9 211815Z AUTO 14008KT 090V170 10SM CLR 23/11 A3023 RMK AO2
K4A9 211755Z AUTO 19006KT 10SM CLR 23/11 A3024 RMK AO2
K4A9 211735Z AUTO 14007KT 10SM CLR 23/12 A3025 RMK AO2
K4A9 211715Z AUTO 14006KT 10SM CLR 22/11 A3026 RMK AO2
K4A9 211655Z AUTO 11008KT 10SM CLR 22/11 A3026 RMK AO2
K4A9 211635Z AUTO 14005KT 10SM CLR 22/11 A3027 RMK AO2
K4A9 211615Z AUTO 13006KT 10SM CLR 22/11 A3028 RMK AO2
K4A9 211555Z AUTO 13005KT 10SM CLR 21/11 A3028 RMK AO2
K4A9 211535Z AUTO 16005KT 10SM CLR 21/12 A3028 RMK AO2
K4A9 211515Z AUTO 00000KT 10SM CLR 20/12 A3028 RMK AO2
K4A9 211455Z AUTO 00000KT 10SM CLR 19/12 A3028 RMK AO2
K4A9 211435Z AUTO 00000KT 10SM CLR 18/10 A3029 RMK AO2
K4A9 211415Z AUTO 00000KT 10SM CLR 17/10 A3029 RMK AO2
K4A9 211355Z AUTO 00000KT 10SM CLR 15/10 A3029 RMK AO2
K4A9 211335Z AUTO 00000KT 10SM CLR 12/09 A3028 RMK AO2
K4A9 211315Z AUTO 00000KT 10SM CLR 10/08 A3027 RMK AO2
K4A9 211255Z AUTO 00000KT 10SM CLR 09/07 A3027 RMK AO2